Oak Grove, Oregon
Current Conditions -  °F | °C
As of 5:53 AM on Thursday 30 Oct 2014 (Local Time) from KPDX Reporting Station
Light Rain Light Rain  
Wind Chill: 14°   Ceiling: 7000
Heat Index: 14°   Visibility: 10mi
Dew Point: 12°   Wind: 12mph
Humidity: 87%   Direction: 110°ESE
Pressure: 29.9"   Gusts: NA
Location:  45.42°N, 122.64°W
Report Text: KPDX 301253Z 11010KT 10SM -RA BKN070 OVC095 14/12 A2990 RMK AO2 RAB42 SLP123 P0001 T01440122
Loading
Personal Weather Stations






























Interactive Weather Map
Tropical Storm Tracking
New forecast layout! Learn more

10-Day Weather Forecast

Advertisements
Track Severe Weather on mobile